createdAt,value
2022-09-11T00:02:20.087Z,1.00
2022-09-11T00:04:47.311Z,0.95
2022-09-11T00:07:14.370Z,0.87
2022-09-11T00:09:41.403Z,1.18
2022-09-11T00:12:08.613Z,1.04
2022-09-11T00:14:35.728Z,1.26
2022-09-11T00:17:04.271Z,1.31
2022-09-11T00:19:31.410Z,0.95
2022-09-11T00:21:58.504Z,0.87
2022-09-11T00:24:25.571Z,1.11
2022-09-11T00:26:52.633Z,0.96
2022-09-11T00:29:19.690Z,0.85
2022-09-11T00:31:46.740Z,1.06
2022-09-11T00:34:15.233Z,1.15
2022-09-11T00:36:42.442Z,1.17
2022-09-11T00:39:11.351Z,0.95
2022-09-11T00:41:42.090Z,0.85
2022-09-11T00:44:47.511Z,0.83
2022-09-11T00:47:19.451Z,0.78
2022-09-11T00:49:51.196Z,0.98
2022-09-11T00:52:23.591Z,0.90
2022-09-11T00:54:57.713Z,1.07
2022-09-11T00:57:30.761Z,1.30
2022-09-11T01:00:01.532Z,1.55
2022-09-11T01:02:35.309Z,0.86
2022-09-11T01:05:03.710Z,1.06
2022-09-11T01:07:33.390Z,1.13
2022-09-11T01:10:00.692Z,1.16
2022-09-11T01:12:37.370Z,1.32
2022-09-11T01:15:12.011Z,1.05
2022-09-11T01:18:02.672Z,1.07
2022-09-11T01:20:45.751Z,0.92
2022-09-11T01:23:49.750Z,0.88
2022-09-11T01:26:42.871Z,1.20
2022-09-11T01:29:22.169Z,1.20
2022-09-11T01:31:57.409Z,1.14
2022-09-11T01:34:35.447Z,0.98
2022-09-11T01:37:11.347Z,0.94
2022-09-11T01:39:44.998Z,0.81
2022-09-11T01:42:18.949Z,0.90
2022-09-11T01:44:53.247Z,1.05
2022-09-11T01:47:21.489Z,1.12
2022-09-11T01:49:53.729Z,0.87
2022-09-11T01:52:27.208Z,0.94
2022-09-11T01:55:01.152Z,1.22
2022-09-11T01:57:36.087Z,1.03
2022-09-11T02:00:09.828Z,0.89
2022-09-11T02:02:41.528Z,0.87
2022-09-11T02:05:16.066Z,0.86
2022-09-11T02:07:49.189Z,1.03
2022-09-11T02:10:23.407Z,0.87
2022-09-11T02:12:57.047Z,0.87
2022-09-11T02:15:36.168Z,4.94
2022-09-11T02:18:11.527Z,11.06
2022-09-11T02:20:38.608Z,9.49
2022-09-11T02:23:06.030Z,7.57
2022-09-11T02:25:33.229Z,6.41
2022-09-11T02:28:00.328Z,4.38
2022-09-11T02:30:29.229Z,3.49
2022-09-11T02:32:56.506Z,3.27
2022-09-11T02:35:28.949Z,2.91
2022-09-11T02:38:06.769Z,2.76
2022-09-11T02:40:46.649Z,2.06
2022-09-11T02:43:38.362Z,1.86
2022-09-11T02:46:35.068Z,1.55
2022-09-11T02:49:13.691Z,1.65
2022-09-11T02:51:54.651Z,1.79
2022-09-11T02:54:33.169Z,1.67
2022-09-11T02:57:08.138Z,1.43
2022-09-11T02:59:41.108Z,1.35
2022-09-11T03:02:14.373Z,1.16
2022-09-11T03:04:41.668Z,1.23
2022-09-11T03:07:08.730Z,1.18
2022-09-11T03:09:35.867Z,1.15
2022-09-11T03:12:03.727Z,1.16
2022-09-11T03:14:30.850Z,1.06
2022-09-11T03:16:57.968Z,0.95
2022-09-11T03:19:26.428Z,1.16
2022-09-11T03:21:53.549Z,0.98
2022-09-11T03:24:20.649Z,0.97
2022-09-11T03:26:47.689Z,1.00
2022-09-11T03:29:15.009Z,0.74
2022-09-11T03:31:42.128Z,0.83
2022-09-11T03:34:09.588Z,0.96
2022-09-11T03:36:38.107Z,0.86
2022-09-11T03:39:05.867Z,0.86
2022-09-11T03:41:32.970Z,0.81
2022-09-11T03:44:00.168Z,0.86
2022-09-11T03:46:27.307Z,1.02
2022-09-11T03:48:54.388Z,0.98
2022-09-11T03:51:21.470Z,0.89
2022-09-11T03:53:49.927Z,1.14
2022-09-11T03:56:17.027Z,0.93
2022-09-11T03:58:44.108Z,1.06
2022-09-11T04:01:13.107Z,1.31
2022-09-11T04:03:41.349Z,1.03
2022-09-11T04:06:09.848Z,1.01
2022-09-11T04:08:36.930Z,1.16
2022-09-11T04:11:06.287Z,0.89
2022-09-11T04:13:35.407Z,0.98
2022-09-11T04:16:04.941Z,0.84
2022-09-11T04:18:34.507Z,0.85
2022-09-11T04:21:04.027Z,0.83
2022-09-11T04:23:31.154Z,0.80
2022-09-11T04:25:58.187Z,0.82
2022-09-11T04:28:28.487Z,0.78
2022-09-11T04:30:55.888Z,1.01
2022-09-11T04:33:23.629Z,0.88
2022-09-11T04:35:51.187Z,0.70
2022-09-11T04:38:18.248Z,0.81
2022-09-11T04:40:45.387Z,0.77
2022-09-11T04:43:12.527Z,0.94
2022-09-11T04:45:41.007Z,1.02
2022-09-11T04:48:08.107Z,0.96
2022-09-11T04:50:35.208Z,0.86
2022-09-11T04:53:02.327Z,0.86
2022-09-11T04:55:29.430Z,0.87
2022-09-11T04:57:56.529Z,1.03
2022-09-11T05:00:23.567Z,0.82
2022-09-11T05:02:52.094Z,1.10
2022-09-11T05:05:19.169Z,0.95
2022-09-11T05:07:49.068Z,0.93
2022-09-11T05:10:16.187Z,0.87
2022-09-11T05:12:43.226Z,1.04
2022-09-11T05:15:11.227Z,1.03
2022-09-11T05:17:38.528Z,1.03
2022-09-11T05:20:11.761Z,1.08
2022-09-11T05:22:39.049Z,1.14
2022-09-11T05:25:06.448Z,1.36
2022-09-11T05:27:33.508Z,1.15
2022-09-11T05:30:00.588Z,1.29
2022-09-11T05:32:27.649Z,1.26
2022-09-11T05:34:54.728Z,1.26
2022-09-11T05:37:23.268Z,1.42
2022-09-11T05:39:50.337Z,1.00
2022-09-11T05:42:17.609Z,1.12
2022-09-11T05:44:44.728Z,1.45
2022-09-11T05:47:11.810Z,1.46
2022-09-11T05:49:38.874Z,1.18
2022-09-11T05:52:06.188Z,1.21
2022-09-11T05:54:34.668Z,1.16
2022-09-11T05:57:05.638Z,1.06
2022-09-11T05:59:34.668Z,1.05
2022-09-11T06:02:01.733Z,1.11
2022-09-11T06:04:28.828Z,1.43
2022-09-11T06:06:55.888Z,1.27
2022-09-11T06:09:22.927Z,1.22
2022-09-11T06:11:51.448Z,1.26
2022-09-11T06:14:18.486Z,1.43
2022-09-11T06:16:45.662Z,1.16
2022-09-11T06:19:12.729Z,1.16
2022-09-11T06:21:39.827Z,1.19
2022-09-11T06:24:07.427Z,1.08
2022-09-11T06:26:35.330Z,1.20
2022-09-11T06:29:03.868Z,1.34
2022-09-11T06:31:30.914Z,1.36
2022-09-11T06:33:57.966Z,1.12
2022-09-11T06:36:26.910Z,1.13
2022-09-11T06:38:54.749Z,1.26
2022-09-11T06:41:22.627Z,1.26
2022-09-11T06:43:49.706Z,1.18
2022-09-11T06:46:20.607Z,1.14
2022-09-11T06:48:50.028Z,1.05
2022-09-11T06:51:19.307Z,1.22
2022-09-11T06:53:47.403Z,1.14
2022-09-11T06:56:16.827Z,1.18
2022-09-11T06:58:45.668Z,1.02
2022-09-11T07:01:14.746Z,1.01
2022-09-11T07:03:44.529Z,1.22
2022-09-11T07:06:12.310Z,1.09
2022-09-11T07:08:39.407Z,1.12
2022-09-11T07:11:08.130Z,0.97
2022-09-11T07:13:37.491Z,0.85
2022-09-11T07:16:07.230Z,0.90
2022-09-11T07:18:34.850Z,0.95
2022-09-11T07:21:07.248Z,0.81
2022-09-11T07:23:34.468Z,1.06
2022-09-11T07:26:03.547Z,1.21
2022-09-11T07:28:30.699Z,0.90
2022-09-11T07:31:07.379Z,0.92
2022-09-11T07:33:34.509Z,0.73
2022-09-11T07:36:08.788Z,0.85
2022-09-11T07:38:35.869Z,0.95
2022-09-11T07:41:02.890Z,0.91
2022-09-11T07:43:30.026Z,0.94
2022-09-11T07:45:57.299Z,1.14
2022-09-11T07:48:24.547Z,0.82
2022-09-11T07:50:59.070Z,1.01
2022-09-11T07:53:27.728Z,0.94
2022-09-11T07:55:54.809Z,0.87
2022-09-11T07:58:22.051Z,0.88
2022-09-11T08:00:49.156Z,1.59
2022-09-11T08:03:16.219Z,1.46
2022-09-11T08:05:43.308Z,0.94
2022-09-11T08:08:10.489Z,0.70
2022-09-11T08:10:39.831Z,0.82
2022-09-11T08:13:09.542Z,0.83
2022-09-11T08:15:36.787Z,0.82
2022-09-11T08:18:04.308Z,0.84
2022-09-11T08:20:31.628Z,0.79
2022-09-11T08:22:58.686Z,0.74
2022-09-11T08:25:25.727Z,0.74
2022-09-11T08:27:54.608Z,0.86
2022-09-11T08:30:21.768Z,0.80
2022-09-11T08:32:48.848Z,0.95
2022-09-11T08:35:15.947Z,0.88
2022-09-11T08:37:43.050Z,0.91
2022-09-11T08:40:10.269Z,0.80
2022-09-11T08:42:39.927Z,0.86
2022-09-11T08:45:16.629Z,0.94
2022-09-11T08:47:51.950Z,0.97
2022-09-11T08:50:25.268Z,0.87
2022-09-11T08:52:52.687Z,1.00
2022-09-11T08:55:30.150Z,0.80
2022-09-11T08:58:11.048Z,0.97
2022-09-11T09:00:48.073Z,4.61
2022-09-11T09:03:37.448Z,1.22
2022-09-11T09:06:49.988Z,1.03
2022-09-11T09:09:34.340Z,0.98
2022-09-11T09:12:13.768Z,0.97
2022-09-11T09:15:04.530Z,0.84
2022-09-11T09:17:41.270Z,0.96
2022-09-11T09:20:15.608Z,0.85
2022-09-11T09:22:50.688Z,0.84
2022-09-11T09:25:21.756Z,0.95
2022-09-11T09:27:53.766Z,1.12
2022-09-11T09:30:23.749Z,1.19
2022-09-11T09:33:00.308Z,1.15
2022-09-11T09:35:39.028Z,0.83
2022-09-11T09:38:13.057Z,0.71
2022-09-11T09:40:54.850Z,1.00
2022-09-11T09:43:44.092Z,1.07
2022-09-11T09:46:24.548Z,0.80
2022-09-11T09:48:53.407Z,0.91
2022-09-11T09:51:20.507Z,0.93
2022-09-11T09:53:54.135Z,0.78
2022-09-11T09:56:23.728Z,0.96
2022-09-11T09:58:58.928Z,0.90
2022-09-11T10:01:50.046Z,0.92
2022-09-11T10:04:22.066Z,0.92
2022-09-11T10:06:52.367Z,1.28
2022-09-11T10:09:25.948Z,2.48
2022-09-11T10:11:56.789Z,1.03
2022-09-11T10:14:49.826Z,0.85
2022-09-11T10:17:21.069Z,0.89
2022-09-11T10:19:51.487Z,1.12
2022-09-11T10:22:25.592Z,0.82
2022-09-11T10:25:00.788Z,0.97
2022-09-11T10:27:29.750Z,0.91
2022-09-11T10:29:57.107Z,0.95
2022-09-11T10:32:25.289Z,1.03
2022-09-11T10:34:54.389Z,0.88
2022-09-11T10:37:26.809Z,1.17
2022-09-11T10:40:04.694Z,0.79
2022-09-11T10:42:35.688Z,0.85
2022-09-11T10:45:12.687Z,0.93
2022-09-11T10:47:39.806Z,0.79
2022-09-11T10:50:24.067Z,0.84
2022-09-11T10:53:11.507Z,0.79
2022-09-11T10:55:46.069Z,1.11
2022-09-11T10:58:18.249Z,1.05
2022-09-11T11:00:45.627Z,1.15
2022-09-11T11:03:17.908Z,1.06
2022-09-11T11:06:03.016Z,1.04
2022-09-11T11:09:11.413Z,0.98
2022-09-11T11:11:54.988Z,1.03
2022-09-11T11:14:46.708Z,0.97
2022-09-11T11:17:24.228Z,1.21
2022-09-11T11:20:18.489Z,1.04
2022-09-11T11:23:18.302Z,0.98
2022-09-11T11:25:59.259Z,1.13
2022-09-11T11:29:02.759Z,0.97
2022-09-11T11:31:44.424Z,1.18
2022-09-11T11:34:37.340Z,1.13
2022-09-11T11:37:12.380Z,1.03
2022-09-11T11:39:54.658Z,1.09
2022-09-11T11:42:28.002Z,1.52
2022-09-11T11:45:00.481Z,1.29
2022-09-11T11:47:35.579Z,1.02
2022-09-11T11:50:13.976Z,0.92
2022-09-11T11:53:00.175Z,1.06
2022-09-11T11:55:43.301Z,0.87
2022-09-11T11:58:23.855Z,1.01
2022-09-11T12:00:59.965Z,0.93
2022-09-11T12:03:36.409Z,1.12
2022-09-11T12:06:05.140Z,1.07
2022-09-11T12:08:32.386Z,0.94
2022-09-11T12:11:05.640Z,0.93
2022-09-11T12:13:37.022Z,1.12
2022-09-11T12:16:13.058Z,1.02
2022-09-11T12:18:41.979Z,1.13
2022-09-11T12:21:37.369Z,0.99
2022-09-11T12:24:17.821Z,1.00
2022-09-11T12:26:46.962Z,1.20
2022-09-11T12:29:50.162Z,1.04
2022-09-11T12:32:27.124Z,1.07
2022-09-11T12:35:13.463Z,1.18
2022-09-11T12:37:43.082Z,1.07
2022-09-11T12:40:18.904Z,1.17
2022-09-11T12:42:57.381Z,1.14
2022-09-11T12:45:45.664Z,0.98
2022-09-11T12:48:15.922Z,1.19
2022-09-11T12:50:51.401Z,1.25
2022-09-11T12:53:26.463Z,1.37
2022-09-11T12:55:58.882Z,1.06
2022-09-11T12:58:35.721Z,0.95
2022-09-11T13:01:22.701Z,1.14
2022-09-11T13:03:58.203Z,0.96
2022-09-11T13:06:40.903Z,1.14
2022-09-11T13:09:19.642Z,1.01
2022-09-11T13:11:49.724Z,1.16
2022-09-11T13:14:47.364Z,0.88
2022-09-11T13:17:22.281Z,0.95
2022-09-11T13:19:49.441Z,0.94
2022-09-11T13:22:25.502Z,0.99
2022-09-11T13:25:05.164Z,1.06
2022-09-11T13:27:35.562Z,1.02
2022-09-11T13:30:05.985Z,1.07
2022-09-11T13:32:34.842Z,1.08
2022-09-11T13:35:09.892Z,0.85
2022-09-11T13:37:43.581Z,0.74
2022-09-11T13:40:21.082Z,0.84
2022-09-11T13:42:49.322Z,0.77
2022-09-11T13:45:20.806Z,0.64
2022-09-11T13:47:48.342Z,0.75
2022-09-11T13:50:17.943Z,0.54
2022-09-11T13:52:46.942Z,0.67
2022-09-11T13:55:20.161Z,0.71
2022-09-11T13:57:53.102Z,0.78
2022-09-11T14:00:44.643Z,0.75
2022-09-11T14:03:21.183Z,0.61
2022-09-11T14:05:50.743Z,0.68
2022-09-11T14:08:31.623Z,0.78
2022-09-11T14:11:04.372Z,0.55
2022-09-11T14:13:42.485Z,0.85
2022-09-11T14:16:24.328Z,0.63
2022-09-11T14:18:55.842Z,0.69
2022-09-11T14:21:26.362Z,1.05
2022-09-11T14:23:55.825Z,0.90
2022-09-11T14:26:24.523Z,0.82
2022-09-11T14:29:06.322Z,1.20
2022-09-11T14:31:37.806Z,0.55
2022-09-11T14:34:14.214Z,0.71
2022-09-11T14:36:45.503Z,0.61
2022-09-11T14:39:28.609Z,0.49
2022-09-11T14:41:57.161Z,0.65
2022-09-11T14:44:26.942Z,0.82
2022-09-11T14:46:56.221Z,0.79
2022-09-11T14:49:23.331Z,0.72
2022-09-11T14:51:55.266Z,0.68
2022-09-11T14:54:22.350Z,0.54
2022-09-11T14:56:49.804Z,0.46
2022-09-11T14:59:17.223Z,0.29
2022-09-11T15:01:44.378Z,0.47
2022-09-11T15:04:18.982Z,0.48
2022-09-11T15:06:48.981Z,0.66
2022-09-11T15:09:16.362Z,0.68
2022-09-11T15:11:44.053Z,0.49
2022-09-11T15:14:23.403Z,0.43
2022-09-11T15:16:58.230Z,0.57
2022-09-11T15:19:26.689Z,0.69
2022-09-11T15:21:54.002Z,1.13
2022-09-11T15:24:21.063Z,0.62
2022-09-11T15:26:48.144Z,0.51
2022-09-11T15:29:15.944Z,0.48
2022-09-11T15:31:43.003Z,0.44
2022-09-11T15:34:11.683Z,0.25
2022-09-11T15:36:40.564Z,0.80
2022-09-11T15:39:11.843Z,5.75
2022-09-11T15:41:39.027Z,10.32
2022-09-11T15:44:10.603Z,19.26
2022-09-11T15:46:37.903Z,21.16
2022-09-11T15:49:05.283Z,15.83
2022-09-11T15:51:32.741Z,15.87
2022-09-11T15:54:02.123Z,14.11
2022-09-11T15:56:29.423Z,10.65
2022-09-11T15:58:58.603Z,11.66
2022-09-11T16:01:27.402Z,12.01
2022-09-11T16:03:56.127Z,10.17
2022-09-11T16:06:25.024Z,10.54
2022-09-11T16:08:56.181Z,4.05
2022-09-11T16:11:25.643Z,6.27
2022-09-11T16:13:53.341Z,6.07
2022-09-11T16:16:21.083Z,4.05
2022-09-11T16:18:48.223Z,5.72
2022-09-11T16:21:17.121Z,4.32
2022-09-11T16:23:44.580Z,4.28
2022-09-11T16:26:14.535Z,3.53
2022-09-11T16:28:43.604Z,4.09
2022-09-11T16:31:11.218Z,3.55
2022-09-11T16:33:40.734Z,3.52
2022-09-11T16:36:16.955Z,2.44
2022-09-11T16:38:45.422Z,1.90
2022-09-11T16:41:14.924Z,2.23
2022-09-11T16:43:45.504Z,2.64
2022-09-11T16:46:14.462Z,2.54
2022-09-11T16:48:41.944Z,2.45
2022-09-11T16:51:09.066Z,2.33
2022-09-11T16:53:37.122Z,1.82
2022-09-11T16:56:05.582Z,2.26
2022-09-11T16:58:33.182Z,2.10
2022-09-11T17:01:04.442Z,1.43
2022-09-11T17:03:32.943Z,1.64
2022-09-11T17:06:00.363Z,1.63
2022-09-11T17:08:27.903Z,1.53
2022-09-11T17:10:57.471Z,1.46
2022-09-11T17:13:25.110Z,1.29
2022-09-11T17:15:52.227Z,1.23
2022-09-11T17:18:20.822Z,1.44
2022-09-11T17:20:47.943Z,1.17
2022-09-11T17:23:15.043Z,1.29
2022-09-11T17:25:42.196Z,1.27
2022-09-11T17:28:09.283Z,1.12
2022-09-11T17:30:38.201Z,1.00
2022-09-11T17:33:05.364Z,0.91
2022-09-11T17:35:34.742Z,0.90
2022-09-11T17:38:02.102Z,0.95
2022-09-11T17:40:29.523Z,1.02
2022-09-11T17:42:56.843Z,0.88
2022-09-11T17:45:23.963Z,0.90
2022-09-11T17:47:51.822Z,1.06
2022-09-11T17:50:19.141Z,1.25
2022-09-11T17:52:47.663Z,1.16
2022-09-11T17:55:14.782Z,1.26
2022-09-11T17:57:41.863Z,1.21
2022-09-11T18:00:10.607Z,1.30
2022-09-11T18:02:37.763Z,1.24
2022-09-11T18:05:06.123Z,1.54
2022-09-11T18:07:33.245Z,1.77
2022-09-11T18:10:01.842Z,1.93
2022-09-11T18:12:29.061Z,2.33
2022-09-11T18:14:56.185Z,2.98
2022-09-11T18:17:23.265Z,3.06
2022-09-11T18:19:50.643Z,2.78
2022-09-11T18:22:19.785Z,3.17
2022-09-11T18:24:47.190Z,2.72
2022-09-11T18:27:15.751Z,2.83
2022-09-11T18:29:42.881Z,2.58
2022-09-11T18:32:10.561Z,2.57
2022-09-11T18:34:37.641Z,2.68
2022-09-11T18:37:04.681Z,2.62
2022-09-11T18:39:31.721Z,2.56
2022-09-11T18:42:00.001Z,1.89
2022-09-11T18:44:28.801Z,1.94
2022-09-11T18:46:56.101Z,1.55
2022-09-11T18:49:24.001Z,1.36
2022-09-11T18:51:54.499Z,1.30
2022-09-11T18:54:26.523Z,1.03
2022-09-11T18:56:53.960Z,0.81
2022-09-11T18:59:21.021Z,0.92
2022-09-11T19:01:49.984Z,1.10
2022-09-11T19:04:17.288Z,1.16
2022-09-11T19:06:44.540Z,1.23
2022-09-11T19:09:14.022Z,0.98
2022-09-11T19:11:42.400Z,0.91
2022-09-11T19:14:12.319Z,0.93
2022-09-11T19:16:40.608Z,1.58
2022-09-11T19:19:09.262Z,1.39
2022-09-11T19:21:36.920Z,1.41
2022-09-11T19:24:04.360Z,0.99
2022-09-11T19:26:35.179Z,1.15
2022-09-11T19:29:02.306Z,1.27
2022-09-11T19:31:29.984Z,1.25
2022-09-11T19:34:00.265Z,1.04
2022-09-11T19:36:31.252Z,0.82
2022-09-11T19:39:00.343Z,0.92
2022-09-11T19:41:30.921Z,0.99
2022-09-11T19:44:00.340Z,0.94
2022-09-11T19:46:29.643Z,0.79
2022-09-11T19:49:00.319Z,0.95
2022-09-11T19:51:31.662Z,1.12
2022-09-11T19:54:01.881Z,0.85
2022-09-11T19:56:30.500Z,0.84
2022-09-11T19:58:58.156Z,0.83
2022-09-11T20:01:27.000Z,0.79
2022-09-11T20:03:55.481Z,0.85
2022-09-11T20:06:26.280Z,0.93
2022-09-11T20:09:13.408Z,0.88
2022-09-11T20:11:42.021Z,0.85
2022-09-11T20:14:10.142Z,0.93
2022-09-11T20:16:37.261Z,0.85
2022-09-11T20:19:04.363Z,0.73
2022-09-11T20:21:32.060Z,0.86
2022-09-11T20:24:00.603Z,0.88
2022-09-11T20:26:29.404Z,0.77
2022-09-11T20:29:00.523Z,0.99
2022-09-11T20:31:30.118Z,0.85
2022-09-11T20:33:58.084Z,0.86
2022-09-11T20:36:25.440Z,0.80
2022-09-11T20:38:54.000Z,0.77
2022-09-11T20:41:23.643Z,0.84
2022-09-11T20:43:51.121Z,0.73
2022-09-11T20:46:18.328Z,0.92
2022-09-11T20:48:48.532Z,0.88
2022-09-11T20:51:15.659Z,1.05
2022-09-11T20:53:42.779Z,0.81
2022-09-11T20:56:12.721Z,0.99
2022-09-11T20:58:41.940Z,1.16
2022-09-11T21:01:13.327Z,1.46
2022-09-11T21:03:45.610Z,1.91
2022-09-11T21:06:12.963Z,1.98
2022-09-11T21:08:40.040Z,2.09
2022-09-11T21:11:08.343Z,2.35
2022-09-11T21:13:36.880Z,1.69
2022-09-11T21:16:09.371Z,1.58
2022-09-11T21:18:37.481Z,1.31
2022-09-11T21:21:04.841Z,1.20
2022-09-11T21:23:31.981Z,1.26
2022-09-11T21:25:59.145Z,1.39
2022-09-11T21:28:26.442Z,1.80
2022-09-11T21:30:53.580Z,1.88
2022-09-11T21:33:22.063Z,1.76
2022-09-11T21:35:53.499Z,1.86
2022-09-11T21:38:21.520Z,1.57
2022-09-11T21:40:48.561Z,2.02
2022-09-11T21:43:15.761Z,2.41
2022-09-11T21:45:42.860Z,2.07
2022-09-11T21:48:10.861Z,2.17
2022-09-11T21:50:40.403Z,2.06
2022-09-11T21:53:09.761Z,2.42
2022-09-11T21:55:37.299Z,2.11
2022-09-11T21:58:05.460Z,1.82
2022-09-11T22:00:39.466Z,1.94
2022-09-11T22:03:09.341Z,2.38
2022-09-11T22:05:40.479Z,2.10
2022-09-11T22:08:07.522Z,2.17
2022-09-11T22:10:34.603Z,1.98
2022-09-11T22:13:02.082Z,1.74
2022-09-11T22:15:29.280Z,1.50
2022-09-11T22:17:56.280Z,1.32
2022-09-11T22:20:23.401Z,1.14
2022-09-11T22:22:51.906Z,0.98
2022-09-11T22:25:18.997Z,1.14
2022-09-11T22:27:46.161Z,1.14
2022-09-11T22:30:13.693Z,0.96
2022-09-11T22:32:41.000Z,1.09
2022-09-11T22:35:08.661Z,1.17
2022-09-11T22:37:35.788Z,1.02
2022-09-11T22:40:05.320Z,1.27
2022-09-11T22:42:32.400Z,1.19
2022-09-11T22:44:59.581Z,1.65
2022-09-11T22:47:26.680Z,1.77
2022-09-11T22:49:53.820Z,1.82
2022-09-11T22:52:20.853Z,1.81
2022-09-11T22:54:48.119Z,1.60
2022-09-11T22:57:16.782Z,1.78
2022-09-11T22:59:44.561Z,1.71
2022-09-11T23:02:12.078Z,1.72
2022-09-11T23:04:39.500Z,1.81
2022-09-11T23:07:06.541Z,1.61
2022-09-11T23:09:33.601Z,1.62
2022-09-11T23:12:00.641Z,1.70
2022-09-11T23:14:29.180Z,1.48
2022-09-11T23:16:56.279Z,1.48
2022-09-11T23:19:23.323Z,1.52
2022-09-11T23:21:51.701Z,1.92
2022-09-11T23:24:18.773Z,1.98
2022-09-11T23:26:45.842Z,1.98
2022-09-11T23:29:13.839Z,1.92
2022-09-11T23:31:42.416Z,1.61
2022-09-11T23:34:11.071Z,1.58
2022-09-11T23:36:38.160Z,1.60
2022-09-11T23:39:05.242Z,1.48
2022-09-11T23:41:32.561Z,1.47
2022-09-11T23:43:59.655Z,1.44
2022-09-11T23:46:27.001Z,1.55
2022-09-11T23:48:55.514Z,1.44
2022-09-11T23:51:22.700Z,1.51
2022-09-11T23:53:50.019Z,1.65
2022-09-11T23:56:18.542Z,1.60
2022-09-11T23:58:45.608Z,1.37
